Time;durP1;ratioP1;P1;durP2;ratioP2;P2;SDS_P1;SDS_P2;PMS_P1;PMS_P2;Temp;Humidity;BMP_temperature;BMP_pressure;BME280_temperature;BME280_humidity;BME280_pressure;Samples;Min_cycle;Max_cycle;Signal;HPM_P1;HPM_P2
2023/05/25 00:00:32;;;;;;;12.32;4.00;;;;;;;9.92;100.00;102201.91;4970530;28;20374;-80
2023/05/25 00:02:58;;;;;;;12.73;4.43;;;;;;;9.90;100.00;102212.06;4960895;28;20106;-81
2023/05/25 00:05:26;;;;;;;9.57;3.78;;;;;;;9.86;100.00;102209.56;4960127;29;20513;-80
2023/05/25 00:07:52;;;;;;;12.98;4.45;;;;;;;9.85;100.00;102203.19;4935931;29;20439;-80
2023/05/25 00:10:18;;;;;;;10.45;4.20;;;;;;;9.90;100.00;102205.69;4943571;29;20453;-80
2023/05/25 00:12:43;;;;;;;13.85;4.97;;;;;;;9.73;100.00;102199.28;4948690;29;20031;-80
2023/05/25 00:15:09;;;;;;;12.80;3.88;;;;;;;9.69;100.00;102197.69;4938549;29;20375;-80
2023/05/25 00:17:36;;;;;;;15.98;4.25;;;;;;;9.59;100.00;102193.66;4969715;28;20114;-80
2023/05/25 00:20:06;;;;;;;11.55;4.95;;;;;;;9.67;100.00;102202.34;4950789;29;20039;-80
2023/05/25 00:22:33;;;;;;;11.07;4.13;;;;;;;9.53;100.00;102213.16;4969739;28;20035;-81
2023/05/25 00:24:58;;;;;;;10.55;4.22;;;;;;;9.45;100.00;102210.81;4954198;29;20097;-81
2023/05/25 00:27:24;;;;;;;9.48;4.32;;;;;;;9.38;100.00;102203.91;4942473;29;20031;-81
2023/05/25 00:29:49;;;;;;;7.32;4.38;;;;;;;9.47;100.00;102200.66;4936994;29;20101;-81
2023/05/25 00:32:15;;;;;;;17.00;4.53;;;;;;;9.47;100.00;102210.72;4952139;29;20032;-81
2023/05/25 00:34:41;;;;;;;10.38;4.80;;;;;;;9.43;100.00;102200.91;4935784;29;20440;-81
2023/05/25 00:37:06;;;;;;;18.40;5.13;;;;;;;9.50;100.00;102205.09;4962392;28;20222;-81
2023/05/25 00:39:32;;;;;;;14.77;5.00;;;;;;;9.45;100.00;102207.22;4968102;28;20043;-81
2023/05/25 00:41:58;;;;;;;13.18;4.55;;;;;;;9.49;100.00;102201.47;4951308;29;20048;-80
2023/05/25 00:44:23;;;;;;;9.27;4.15;;;;;;;9.43;100.00;102209.09;4951139;29;20126;-80
2023/05/25 00:46:53;;;;;;;11.48;3.97;;;;;;;9.34;100.00;102203.16;4945282;29;20131;-80
2023/05/25 00:49:21;;;;;;;13.68;4.65;;;;;;;9.35;100.00;102206.81;4957819;28;20062;-79
2023/05/25 00:51:47;;;;;;;9.93;4.63;;;;;;;9.32;100.00;102204.22;4940953;28;20454;-80
2023/05/25 00:54:14;;;;;;;13.32;4.22;;;;;;;9.40;100.00;102214.78;4953984;28;20038;-80
2023/05/25 00:56:45;;;;;;;11.30;4.32;;;;;;;9.27;100.00;102215.38;4925920;28;20093;-80
2023/05/25 00:59:16;;;;;;;10.68;4.85;;;;;;;9.18;100.00;102210.38;4956190;28;20039;-80
2023/05/25 01:01:44;;;;;;;13.90;4.55;;;;;;;9.16;100.00;102209.59;4973011;28;20027;-80
2023/05/25 01:04:14;;;;;;;13.27;4.88;;;;;;;9.22;100.00;102217.47;4940879;28;20482;-80
2023/05/25 01:06:42;;;;;;;15.45;5.43;;;;;;;9.29;100.00;102220.78;4974259;28;20035;-81
2023/05/25 01:09:11;;;;;;;15.68;5.25;;;;;;;9.15;100.00;102205.06;4960189;28;20106;-80
2023/05/25 01:11:41;;;;;;;12.65;5.15;;;;;;;9.09;100.00;102202.69;4969195;28;20089;-80
2023/05/25 01:14:07;;;;;;;12.27;4.47;;;;;;;9.11;100.00;102209.81;4972777;28;20066;-80
2023/05/25 01:16:33;;;;;;;10.93;4.45;;;;;;;9.08;100.00;102209.97;4974040;28;20513;-80
2023/05/25 01:18:58;;;;;;;13.02;4.88;;;;;;;9.02;100.00;102207.56;4953225;28;20041;-80
2023/05/25 01:21:36;;;;;;;11.43;5.03;;;;;;;9.07;100.00;102210.06;4926174;28;20047;-79
2023/05/25 01:24:16;;;;;;;9.85;4.88;;;;;;;9.03;100.00;102209.31;4974000;28;20035;-82
2023/05/25 01:26:47;;;;;;;10.77;5.00;;;;;;;8.95;100.00;102204.28;4950936;28;20501;-80
2023/05/25 01:29:16;;;;;;;12.80;4.90;;;;;;;9.06;100.00;102213.75;4955398;28;20023;-80
2023/05/25 01:31:44;;;;;;;9.43;4.88;;;;;;;8.97;100.00;102209.66;4952288;28;20023;-80
2023/05/25 01:34:11;;;;;;;16.40;5.10;;;;;;;8.88;100.00;102200.06;4970162;28;20082;-80
2023/05/25 01:36:36;;;;;;;10.95;5.22;;;;;;;8.98;100.00;102215.03;4949593;28;20118;-80
2023/05/25 01:39:05;;;;;;;9.52;4.78;;;;;;;8.90;100.00;102214.53;4954013;28;20126;-80
2023/05/25 01:41:30;;;;;;;13.77;5.10;;;;;;;8.89;100.00;102211.91;4964369;28;20038;-80
2023/05/25 01:43:56;;;;;;;12.25;4.47;;;;;;;8.90;100.00;102210.91;4939330;28;20038;-80
2023/05/25 01:46:37;;;;;;;14.85;5.03;;;;;;;8.92;100.00;102226.28;4949529;28;20034;-79
2023/05/25 01:49:08;;;;;;;16.15;4.70;;;;;;;8.89;100.00;102234.63;4970046;28;20047;-80
2023/05/25 01:52:02;;;;;;;8.50;4.55;;;;;;;8.91;100.00;102231.81;4938619;28;20046;-80
2023/05/25 01:54:39;;;;;;;18.38;5.03;;;;;;;8.91;100.00;102240.88;4935855;28;20030;-80
2023/05/25 01:57:12;;;;;;;12.40;4.05;;;;;;;8.88;100.00;102232.84;4957431;28;20038;-80
2023/05/25 01:59:37;;;;;;;16.27;6.00;;;;;;;8.90;100.00;102235.50;4971574;28;20030;-80
2023/05/25 02:02:04;;;;;;;11.20;4.43;;;;;;;8.91;100.00;102234.53;4924071;28;20034;-80
2023/05/25 02:04:30;;;;;;;11.35;4.63;;;;;;;8.90;100.00;102239.09;4943776;28;20054;-80
2023/05/25 02:06:56;;;;;;;12.73;4.85;;;;;;;8.86;100.00;102232.03;4974767;28;20101;-80
2023/05/25 02:09:21;;;;;;;16.52;5.57;;;;;;;8.90;100.00;102233.63;4939742;28;20030;-80
2023/05/25 02:11:48;;;;;;;11.25;4.63;;;;;;;8.81;100.00;102239.59;4956669;28;20067;-80
2023/05/25 02:14:14;;;;;;;11.32;4.47;;;;;;;8.81;100.00;102247.78;4965704;28;20393;-80
2023/05/25 02:16:40;;;;;;;18.00;4.85;;;;;;;8.78;100.00;102239.72;4952851;28;20046;-80
2023/05/25 02:19:06;;;;;;;15.00;4.90;;;;;;;8.81;100.00;102245.91;4959592;28;20034;-80
2023/05/25 02:21:31;;;;;;;12.70;4.80;;;;;;;8.85;100.00;102235.72;4964428;28;20043;-80
2023/05/25 02:23:56;;;;;;;12.77;5.15;;;;;;;8.80;100.00;102240.53;4943395;28;20066;-81
2023/05/25 02:26:22;;;;;;;13.23;4.72;;;;;;;8.77;100.00;102244.31;4941455;28;20039;-80
2023/05/25 02:28:47;;;;;;;14.38;5.15;;;;;;;8.80;100.00;102243.25;4942225;28;20546;-80
2023/05/25 02:31:13;;;;;;;12.73;4.75;;;;;;;8.71;100.00;102241.88;4925327;29;20077;-80
2023/05/25 02:33:38;;;;;;;18.63;5.40;;;;;;;8.72;100.00;102235.44;4959825;28;20042;-81
2023/05/25 02:36:04;;;;;;;20.13;5.38;;;;;;;8.69;100.00;102231.97;4957737;28;20034;-79
2023/05/25 02:38:30;;;;;;;17.00;5.40;;;;;;;8.69;100.00;102240.16;4939466;28;20035;-80
2023/05/25 02:40:55;;;;;;;12.05;4.63;;;;;;;8.69;100.00;102221.97;4952604;28;20508;-80
2023/05/25 02:43:21;;;;;;;14.68;4.75;;;;;;;8.77;100.00;102221.56;4958630;28;20043;-79
2023/05/25 02:45:46;;;;;;;13.77;4.72;;;;;;;8.70;100.00;102225.56;4971521;28;20324;-80
2023/05/25 02:48:11;;;;;;;12.27;4.65;;;;;;;8.74;100.00;102230.81;4973088;28;20046;-79
2023/05/25 02:50:37;;;;;;;10.60;4.88;;;;;;;8.65;100.00;102245.78;4953739;28;20055;-80
2023/05/25 02:53:03;;;;;;;12.77;4.90;;;;;;;8.67;100.00;102234.78;4938879;29;20046;-80
2023/05/25 02:55:28;;;;;;;11.93;5.05;;;;;;;8.65;100.00;102244.91;4953432;29;20031;-80
2023/05/25 02:57:54;;;;;;;10.52;4.93;;;;;;;8.56;100.00;102229.88;4953287;29;20035;-80
2023/05/25 03:00:19;;;;;;;19.48;5.22;;;;;;;8.62;100.00;102243.22;4939537;29;20171;-80
2023/05/25 03:02:47;;;;;;;20.67;4.90;;;;;;;8.53;100.00;102243.66;4939989;29;20410;-80
2023/05/25 03:05:15;;;;;;;15.88;5.65;;;;;;;8.52;100.00;102241.00;4940275;29;20035;-80
2023/05/25 03:07:41;;;;;;;18.40;5.35;;;;;;;8.54;100.00;102242.69;4938535;29;20031;-80
2023/05/25 03:10:08;;;;;;;17.52;5.35;;;;;;;8.52;100.00;102241.88;4922513;29;20043;-80
2023/05/25 03:12:33;;;;;;;17.23;5.40;;;;;;;8.54;100.00;102253.59;4950238;29;20098;-80
2023/05/25 03:14:58;;;;;;;14.70;5.07;;;;;;;8.51;100.00;102256.50;4955560;29;20429;-80
2023/05/25 03:17:25;;;;;;;9.15;4.80;;;;;;;8.54;100.00;102258.19;4955323;29;20060;-80
2023/05/25 03:19:51;;;;;;;13.90;5.20;;;;;;;8.45;100.00;102243.13;4966030;28;20115;-80
2023/05/25 03:22:16;;;;;;;17.55;5.68;;;;;;;8.40;100.00;102261.56;4925421;29;20516;-80
2023/05/25 03:24:41;;;;;;;10.10;5.22;;;;;;;8.42;100.00;102254.16;4956990;29;20036;-80
2023/05/25 03:27:07;;;;;;;18.20;5.50;;;;;;;8.34;100.00;102243.59;4944033;29;20067;-80
2023/05/25 03:29:33;;;;;;;16.00;4.88;;;;;;;8.43;100.00;102266.91;4957398;28;20538;-80
2023/05/25 03:31:59;;;;;;;12.85;4.47;;;;;;;8.27;100.00;102261.25;4939737;29;20497;-80
2023/05/25 03:34:25;;;;;;;13.27;5.70;;;;;;;8.31;100.00;102272.88;4904650;29;20027;-80
2023/05/25 03:36:53;;;;;;;11.73;5.20;;;;;;;8.37;100.00;102272.59;4916958;29;20055;-80
2023/05/25 03:39:18;;;;;;;18.02;5.28;;;;;;;8.30;100.00;102272.00;4956595;28;20065;-80
2023/05/25 03:41:44;;;;;;;11.52;5.78;;;;;;;8.37;100.00;102276.22;4954702;29;20511;-80
2023/05/25 03:44:10;;;;;;;20.95;5.30;;;;;;;8.36;100.00;102274.47;4951646;29;20387;-80
2023/05/25 03:46:35;;;;;;;13.88;5.85;;;;;;;8.39;100.00;102279.75;4948373;29;20046;-80
2023/05/25 03:49:01;;;;;;;14.00;5.30;;;;;;;8.38;100.00;102268.91;4953899;28;20129;-79
2023/05/25 03:51:28;;;;;;;13.50;5.18;;;;;;;8.42;100.00;102286.91;4969627;28;20049;-79
2023/05/25 03:53:53;;;;;;;13.52;5.88;;;;;;;8.45;100.00;102287.69;4969856;28;20047;-79
2023/05/25 03:56:19;;;;;;;16.50;5.63;;;;;;;8.39;100.00;102285.19;4954823;28;20038;-79
2023/05/25 03:58:44;;;;;;;13.57;5.72;;;;;;;8.40;100.00;102295.19;4955840;28;20038;-79
2023/05/25 04:01:11;;;;;;;14.00;5.45;;;;;;;8.43;100.00;102292.34;4968214;28;20035;-79
2023/05/25 04:03:36;;;;;;;17.60;5.95;;;;;;;8.40;100.00;102297.03;4948928;28;20028;-79
2023/05/25 04:06:02;;;;;;;20.80;6.25;;;;;;;8.43;100.00;102294.19;4930607;28;20185;-77
2023/05/25 04:08:28;;;;;;;20.30;5.10;;;;;;;8.44;100.00;102293.22;4936809;28;20042;-78
2023/05/25 04:10:53;;;;;;;21.75;5.65;;;;;;;8.42;100.00;102293.25;4938877;28;20035;-79
2023/05/25 04:13:19;;;;;;;19.33;6.78;;;;;;;8.49;100.00;102307.53;4954584;28;20489;-77
2023/05/25 04:15:44;;;;;;;12.55;5.72;;;;;;;8.46;100.00;102294.03;4954350;28;20034;-77
2023/05/25 04:18:09;;;;;;;12.68;5.50;;;;;;;8.49;100.00;102299.34;4940684;28;20031;-77
2023/05/25 04:20:35;;;;;;;15.32;5.72;;;;;;;8.43;100.00;102295.06;4951030;28;20478;-78
2023/05/25 04:23:01;;;;;;;19.80;6.55;;;;;;;8.55;100.00;102296.31;4965577;28;20105;-77
2023/05/25 04:25:26;;;;;;;19.20;5.43;;;;;;;8.56;100.00;102306.31;4954991;28;20035;-76
2023/05/25 04:27:52;;;;;;;15.70;5.88;;;;;;;8.57;100.00;102299.88;4954808;28;20041;-78
2023/05/25 04:30:18;;;;;;;17.13;6.43;;;;;;;8.52;100.00;102296.47;4940708;28;20070;-80
2023/05/25 04:32:44;;;;;;;16.80;5.63;;;;;;;8.55;100.00;102288.13;4945822;28;20052;-77
2023/05/25 04:35:10;;;;;;;15.10;6.28;;;;;;;8.61;100.00;102298.78;4941136;28;20035;-79
2023/05/25 04:37:35;;;;;;;13.32;5.95;;;;;;;8.67;100.00;102293.97;4954523;28;20053;-78
2023/05/25 04:40:05;;;;;;;16.15;6.28;;;;;;;8.69;100.00;102303.88;4970392;28;20045;-79
2023/05/25 04:42:31;;;;;;;15.10;6.88;;;;;;;8.68;100.00;102307.56;4955438;28;20026;-79
2023/05/25 04:44:57;;;;;;;15.27;5.82;;;;;;;8.74;100.00;102296.34;4949945;29;20073;-79
2023/05/25 04:47:23;;;;;;;14.55;5.90;;;;;;;8.81;100.00;102310.59;4974387;28;20046;-79
2023/05/25 04:49:49;;;;;;;18.75;6.30;;;;;;;8.81;100.00;102308.72;4970620;28;20077;-79
2023/05/25 04:52:15;;;;;;;19.30;6.72;;;;;;;8.88;100.00;102314.78;4934743;29;20082;-79
2023/05/25 04:54:40;;;;;;;14.38;5.65;;;;;;;8.89;100.00;102305.63;4949591;28;20023;-78
2023/05/25 04:57:06;;;;;;;13.32;6.00;;;;;;;8.97;100.00;102317.06;4937504;29;20043;-77
2023/05/25 04:59:31;;;;;;;12.23;6.18;;;;;;;9.01;100.00;102310.47;4937805;29;20472;-77
2023/05/25 05:01:57;;;;;;;13.52;6.50;;;;;;;9.05;100.00;102302.13;4952325;29;20553;-78
2023/05/25 05:04:22;;;;;;;14.15;5.93;;;;;;;9.07;100.00;102316.59;4953449;29;20547;-78
2023/05/25 05:06:48;;;;;;;12.85;5.13;;;;;;;9.11;100.00;102315.50;4932306;29;20040;-77
2023/05/25 05:09:13;;;;;;;10.32;5.97;;;;;;;9.28;100.00;102315.56;4921591;29;20045;-77
2023/05/25 05:11:39;;;;;;;16.27;5.65;;;;;;;9.34;100.00;102314.34;4947575;29;20031;-78
2023/05/25 05:14:04;;;;;;;12.88;6.13;;;;;;;9.41;100.00;102325.88;4937818;29;20038;-78
2023/05/25 05:16:33;;;;;;;17.17;6.03;;;;;;;9.50;100.00;102337.22;4954174;29;20506;-78
2023/05/25 05:19:02;;;;;;;16.40;6.00;;;;;;;9.57;100.00;102326.84;4954068;29;20029;-78
2023/05/25 05:21:28;;;;;;;13.63;5.28;;;;;;;9.50;100.00;102314.47;4954569;28;20043;-77
2023/05/25 05:23:53;;;;;;;19.75;5.40;;;;;;;9.79;100.00;102331.22;4937982;29;20039;-78
2023/05/25 05:26:20;;;;;;;16.63;5.80;;;;;;;10.11;100.00;102338.59;4970141;28;20122;-78
2023/05/25 05:28:45;;;;;;;15.90;5.50;;;;;;;10.26;100.00;102320.50;4965728;28;20372;-78
2023/05/25 05:31:10;;;;;;;14.43;5.03;;;;;;;10.66;100.00;102336.63;4936232;29;20042;-78
2023/05/25 05:33:36;;;;;;;11.45;4.80;;;;;;;10.94;100.00;102348.78;4954082;29;20439;-79
2023/05/25 05:36:03;;;;;;;10.45;4.30;;;;;;;11.19;100.00;102354.59;4955158;28;20035;-79
2023/05/25 05:38:29;;;;;;;19.58;4.57;;;;;;;11.41;100.00;102345.13;4950171;29;20070;-78
2023/05/25 05:40:54;;;;;;;9.82;5.03;;;;;;;11.54;100.00;102348.94;4958060;29;20527;-78
2023/05/25 05:43:20;;;;;;;11.00;4.72;;;;;;;11.53;100.00;102324.34;4958481;29;20038;-78
2023/05/25 05:45:45;;;;;;;7.40;3.92;;;;;;;12.14;100.00;102349.94;4956090;29;20123;-78
2023/05/25 05:48:11;;;;;;;14.30;3.92;;;;;;;12.30;100.00;102353.50;4956135;29;20114;-78
2023/05/25 05:50:37;;;;;;;9.63;3.58;;;;;;;12.56;100.00;102361.97;4955599;28;20507;-78
2023/05/25 05:53:02;;;;;;;11.60;4.10;;;;;;;12.64;100.00;102362.38;4958092;28;20035;-78
2023/05/25 05:55:28;;;;;;;12.52;3.65;;;;;;;13.13;100.00;102357.41;4922611;29;20039;-78
2023/05/25 05:57:53;;;;;;;18.75;3.88;;;;;;;13.35;100.00;102368.78;4959020;28;20078;-78
2023/05/25 06:00:19;;;;;;;8.68;3.70;;;;;;;13.33;100.00;102376.28;4952890;28;20062;-78
2023/05/25 06:02:45;;;;;;;14.43;3.53;;;;;;;13.54;100.00;102379.47;4952906;29;20051;-78
2023/05/25 06:05:11;;;;;;;10.00;3.28;;;;;;;13.62;100.00;102378.91;4940022;29;20109;-78
2023/05/25 06:07:37;;;;;;;12.13;3.45;;;;;;;13.69;100.00;102382.13;4955599;29;20039;-78
2023/05/25 06:10:03;;;;;;;10.25;3.83;;;;;;;14.26;100.00;102383.72;4952001;29;20521;-79
2023/05/25 06:12:29;;;;;;;10.90;2.85;;;;;;;14.15;100.00;102388.13;4938414;29;20046;-78
2023/05/25 06:14:54;;;;;;;11.88;3.45;;;;;;;14.03;100.00;102391.72;4956712;28;20046;-78
2023/05/25 06:17:20;;;;;;;8.90;3.58;;;;;;;14.18;100.00;102391.66;4952145;29;20031;-79
2023/05/25 06:19:46;;;;;;;10.48;3.45;;;;;;;14.24;100.00;102388.47;4951409;28;20410;-78
2023/05/25 06:22:12;;;;;;;12.77;4.00;;;;;;;14.64;100.00;102385.66;4943636;29;20039;-77
2023/05/25 06:24:37;;;;;;;10.13;3.55;;;;;;;14.77;100.00;102391.19;4953614;29;20491;-79
2023/05/25 06:27:03;;;;;;;9.50;3.92;;;;;;;14.71;100.00;102389.75;4939433;29;20106;-79
2023/05/25 06:29:29;;;;;;;14.82;4.07;;;;;;;14.88;100.00;102389.41;4953145;29;20046;-80
2023/05/25 06:31:55;;;;;;;12.25;3.33;;;;;;;15.40;100.00;102392.06;4960552;28;20047;-81
2023/05/25 06:34:20;;;;;;;8.93;3.35;;;;;;;15.38;100.00;102392.19;4938515;29;20035;-80
2023/05/25 06:36:46;;;;;;;8.63;3.00;;;;;;;15.86;100.00;102394.13;4971338;28;20073;-79
2023/05/25 06:39:12;;;;;;;9.27;3.65;;;;;;;15.50;100.00;102384.84;4938044;29;20436;-81
2023/05/25 06:41:39;;;;;;;6.65;2.80;;;;;;;15.83;100.00;102410.94;4950014;29;20042;-80
2023/05/25 06:44:05;;;;;;;8.27;3.65;;;;;;;15.79;100.00;102407.53;4953950;29;20036;-81
2023/05/25 06:46:31;;;;;;;10.40;3.38;;;;;;;15.66;100.00;102406.66;4958569;28;20067;-81
2023/05/25 06:49:01;;;;;;;7.65;2.88;;;;;;;16.11;100.00;102406.03;4958321;28;20537;-82
2023/05/25 06:51:27;;;;;;;10.05;3.10;;;;;;;16.07;100.00;102410.94;4974548;28;20051;-82
2023/05/25 06:53:54;;;;;;;9.43;3.38;;;;;;;16.90;100.00;102418.22;4942466;28;20038;-81
2023/05/25 06:56:20;;;;;;;11.82;3.83;;;;;;;16.80;100.00;102413.50;4973843;28;20030;-82
2023/05/25 06:58:45;;;;;;;13.73;3.45;;;;;;;16.17;100.00;102417.50;4955639;28;20122;-80
2023/05/25 07:01:11;;;;;;;9.38;3.20;;;;;;;16.68;100.00;102416.25;4967331;28;20105;-80
2023/05/25 07:03:37;;;;;;;8.02;2.95;;;;;;;16.65;100.00;102421.16;4958883;28;20039;-80
2023/05/25 07:06:04;;;;;;;10.70;3.22;;;;;;;16.85;100.00;102419.56;4951842;28;20916;-80
2023/05/25 07:08:30;;;;;;;8.25;3.65;;;;;;;16.81;100.00;102423.56;4974609;28;20027;-80
2023/05/25 07:10:55;;;;;;;7.05;3.40;;;;;;;17.53;95.68;102430.63;4958059;28;20401;-80
2023/05/25 07:13:21;;;;;;;10.73;3.20;;;;;;;17.74;95.42;102423.28;4953831;28;20034;-80
2023/05/25 07:15:47;;;;;;;15.20;3.58;;;;;;;17.52;96.53;102415.03;4958044;28;20031;-80
2023/05/25 07:18:12;;;;;;;8.63;2.60;;;;;;;17.76;90.99;102423.16;4955589;28;20043;-80
2023/05/25 07:20:42;;;;;;;6.18;2.80;;;;;;;17.62;91.84;102421.53;4957001;28;20042;-80
2023/05/25 07:23:09;;;;;;;19.38;3.47;;;;;;;17.61;89.59;102423.44;4968789;28;20066;-80
2023/05/25 07:25:35;;;;;;;12.68;3.88;;;;;;;17.85;89.52;102427.03;4908422;28;20462;-80
2023/05/25 07:28:03;;;;;;;9.45;3.42;;;;;;;17.81;91.52;102423.66;4966712;28;20544;-80
2023/05/25 07:30:29;;;;;;;10.40;3.20;;;;;;;18.08;87.61;102427.88;4942841;28;20038;-80
2023/05/25 07:32:55;;;;;;;7.25;3.30;;;;;;;17.85;84.82;102427.03;4945342;28;20066;-80
2023/05/25 07:35:21;;;;;;;8.60;3.15;;;;;;;18.02;89.99;102434.84;4957542;28;20521;-80
2023/05/25 07:37:55;;;;;;;9.15;3.20;;;;;;;18.90;88.32;102424.41;4956835;28;20039;-80
2023/05/25 07:40:20;;;;;;;9.85;2.70;;;;;;;19.08;83.86;102430.19;4954374;28;20045;-81
2023/05/25 07:42:46;;;;;;;6.75;2.47;;;;;;;18.76;83.34;102428.41;4941288;29;20035;-78
2023/05/25 07:45:11;;;;;;;11.40;2.35;;;;;;;17.69;85.60;102436.63;4972345;28;20038;-79
2023/05/25 07:47:37;;;;;;;7.20;2.50;;;;;;;18.20;84.96;102437.91;4953410;28;20043;-79
2023/05/25 07:50:02;;;;;;;9.57;2.78;;;;;;;16.97;87.81;102437.97;4957425;28;20051;-79
2023/05/25 07:52:28;;;;;;;8.38;3.05;;;;;;;16.84;92.67;102424.22;4943293;28;20043;-79
2023/05/25 07:54:53;;;;;;;6.55;2.42;;;;;;;17.23;92.36;102432.16;4925916;28;20035;-79
2023/05/25 07:57:19;;;;;;;13.02;3.20;;;;;;;17.66;89.06;102439.69;4956318;28;20498;-79
2023/05/25 07:59:44;;;;;;;7.28;3.05;;;;;;;18.63;82.12;102433.28;4955624;28;20498;-79
2023/05/25 08:02:10;;;;;;;11.40;3.40;;;;;;;18.54;82.77;102435.84;4953791;28;20038;-79
2023/05/25 08:04:38;;;;;;;7.15;3.28;;;;;;;17.85;84.63;102443.66;4971499;28;20089;-79
2023/05/25 08:07:03;;;;;;;7.00;3.13;;;;;;;18.10;85.50;102439.69;4972731;28;20031;-79
2023/05/25 08:09:29;;;;;;;10.00;3.35;;;;;;;18.00;87.17;102453.47;4955100;28;20093;-79
2023/05/25 08:11:54;;;;;;;9.48;2.85;;;;;;;18.78;80.57;102442.13;4968270;28;20419;-79
2023/05/25 08:14:22;;;;;;;8.88;2.70;;;;;;;18.55;79.45;102443.13;4957393;28;20402;-79
2023/05/25 08:16:47;;;;;;;10.73;3.10;;;;;;;18.26;78.93;102437.34;4956245;28;20039;-78
2023/05/25 08:19:13;;;;;;;12.35;3.50;;;;;;;18.61;79.75;102452.84;4925223;28;20367;-79
2023/05/25 08:21:39;;;;;;;12.25;3.85;;;;;;;17.45;88.08;102457.06;4936416;28;20038;-79
2023/05/25 08:24:07;;;;;;;14.07;3.65;;;;;;;18.41;82.72;102451.78;4967210;28;20133;-79
2023/05/25 08:26:35;;;;;;;6.53;3.10;;;;;;;18.63;81.64;102449.94;4969007;28;20037;-79
2023/05/25 08:29:04;;;;;;;6.60;3.10;;;;;;;19.72;76.58;102459.53;4947867;28;20217;-79
2023/05/25 08:31:33;;;;;;;9.18;3.20;;;;;;;19.85;78.64;102450.09;4956840;28;20031;-79
2023/05/25 08:34:02;;;;;;;8.30;3.40;;;;;;;19.06;75.54;102465.56;4955450;28;20486;-79
2023/05/25 08:36:27;;;;;;;9.88;3.28;;;;;;;19.27;74.58;102458.06;4972228;28;20030;-79
2023/05/25 08:38:53;;;;;;;6.82;4.22;;;;;;;19.16;78.50;102458.16;4949518;28;20078;-79
2023/05/25 08:41:20;;;;;;;8.98;3.47;;;;;;;17.67;83.66;102451.63;4972253;28;20089;-79
2023/05/25 08:43:46;;;;;;;8.45;3.30;;;;;;;17.13;89.28;102453.31;4952598;28;20043;-78
2023/05/25 08:46:12;;;;;;;8.95;3.40;;;;;;;17.79;85.06;102462.56;4958024;28;20376;-78
2023/05/25 08:48:37;;;;;;;11.63;4.00;;;;;;;17.35;87.49;102464.38;4940180;28;20035;-78
2023/05/25 08:51:07;;;;;;;9.30;3.17;;;;;;;17.59;85.90;102460.59;4964894;28;20109;-78
2023/05/25 08:53:38;;;;;;;7.50;3.22;;;;;;;17.44;88.08;102462.75;4962137;28;20026;-79
2023/05/25 08:56:13;;;;;;;10.90;3.22;;;;;;;16.69;92.67;102465.03;4932688;28;20443;-79
2023/05/25 08:58:44;;;;;;;8.15;3.13;;;;;;;17.44;90.43;102465.50;4949604;28;20050;-79
2023/05/25 09:01:14;;;;;;;12.02;3.22;;;;;;;17.88;85.64;102460.06;4950803;28;20085;-79
2023/05/25 09:03:40;;;;;;;8.85;2.90;;;;;;;17.23;86.65;102462.63;4955659;28;20161;-79
2023/05/25 09:06:06;;;;;;;12.38;3.30;;;;;;;16.55;91.56;102470.78;4960171;28;20039;-79
2023/05/25 09:08:32;;;;;;;7.65;2.92;;;;;;;16.31;94.80;102459.75;4956088;28;20054;-79
2023/05/25 09:10:58;;;;;;;10.15;2.90;;;;;;;16.68;93.74;102467.94;4962675;28;20078;-79
2023/05/25 09:13:23;;;;;;;10.02;3.13;;;;;;;16.53;94.47;102459.84;4944382;28;20023;-79
2023/05/25 09:15:50;;;;;;;4.95;2.60;;;;;;;16.53;93.60;102456.19;4959920;28;20130;-80
2023/05/25 09:18:16;;;;;;;11.32;2.80;;;;;;;16.83;88.54;102466.69;4959389;28;20097;-79
2023/05/25 09:20:45;;;;;;;17.40;3.10;;;;;;;16.71;92.01;102462.16;4974504;28;20066;-80
2023/05/25 09:23:10;;;;;;;9.98;2.92;;;;;;;16.90;89.75;102465.25;4976180;28;20039;-79
2023/05/25 09:25:37;;;;;;;9.80;3.47;;;;;;;16.79;89.70;102465.19;4924394;28;20046;-79
2023/05/25 09:28:07;;;;;;;8.55;3.15;;;;;;;16.80;91.36;102475.22;4947506;28;20154;-80
2023/05/25 09:30:34;;;;;;;7.03;3.13;;;;;;;16.31;94.55;102468.03;4975175;28;20027;-79
2023/05/25 09:33:13;;;;;;;12.05;3.50;;;;;;;16.69;92.56;102473.34;4939961;29;20031;-79
2023/05/25 09:35:39;;;;;;;12.10;3.30;;;;;;;16.71;96.69;102473.22;4954188;28;20175;-79
2023/05/25 09:38:05;;;;;;;7.55;3.38;;;;;;;16.78;93.02;102473.63;4976232;28;20034;-79
2023/05/25 09:40:32;;;;;;;8.70;3.30;;;;;;;16.44;94.67;102462.44;4956433;28;20030;-79
2023/05/25 09:42:58;;;;;;;7.93;3.40;;;;;;;16.64;92.93;102474.69;4960027;28;20042;-79
2023/05/25 09:45:23;;;;;;;9.02;3.28;;;;;;;16.98;92.32;102466.50;4944294;28;20027;-79
2023/05/25 09:47:54;;;;;;;10.27;3.30;;;;;;;17.48;90.57;102475.34;4944209;28;20096;-79
2023/05/25 09:50:20;;;;;;;13.73;3.28;;;;;;;17.06;92.24;102467.63;4942102;28;20059;-80
2023/05/25 09:52:46;;;;;;;8.93;2.72;;;;;;;16.84;94.64;102476.78;4943512;28;20054;-80
2023/05/25 09:55:12;;;;;;;11.73;3.65;;;;;;;16.52;96.32;102474.66;4958526;28;20034;-80
2023/05/25 09:57:37;;;;;;;11.75;4.07;;;;;;;16.44;96.28;102473.50;4957040;28;20031;-80
2023/05/25 10:00:04;;;;;;;10.32;3.15;;;;;;;16.40;98.62;102480.25;4942372;28;20062;-80
2023/05/25 10:02:31;;;;;;;6.40;2.63;;;;;;;16.23;100.00;102478.81;4959688;28;20041;-80
2023/05/25 10:04:57;;;;;;;11.93;3.80;;;;;;;16.12;100.00;102491.59;4968075;28;20115;-79
2023/05/25 10:07:24;;;;;;;11.30;3.90;;;;;;;15.91;100.00;102479.41;4956554;28;20173;-79
2023/05/25 10:09:53;;;;;;;9.07;2.60;;;;;;;16.27;100.00;102481.22;4970958;28;20031;-79
2023/05/25 10:12:21;;;;;;;11.35;3.40;;;;;;;16.51;96.99;102489.50;4952869;28;20383;-79
2023/05/25 10:14:49;;;;;;;9.25;2.88;;;;;;;16.10;98.42;102484.41;4942979;28;20512;-79
2023/05/25 10:17:21;;;;;;;9.32;2.78;;;;;;;16.03;99.67;102485.88;4959205;28;20030;-79
2023/05/25 10:20:04;;;;;;;13.00;4.10;;;;;;;16.20;100.00;102487.34;4969817;28;20031;-79
2023/05/25 10:22:38;;;;;;;9.43;2.73;;;;;;;16.36;97.77;102496.22;4947116;28;20034;-79
2023/05/25 10:25:09;;;;;;;6.47;2.83;;;;;;;16.54;96.46;102493.91;4958676;28;20290;-79
2023/05/25 10:27:46;;;;;;;9.57;2.72;;;;;;;16.44;96.93;102498.38;4976359;28;20049;-80
2023/05/25 10:30:13;;;;;;;9.13;2.67;;;;;;;16.55;96.73;102484.59;4968158;28;20035;-79
2023/05/25 10:32:40;;;;;;;7.78;2.53;;;;;;;16.93;96.84;102486.25;4958917;28;20074;-79
2023/05/25 10:35:07;;;;;;;9.13;3.10;;;;;;;16.55;96.93;102492.91;4974220;28;20027;-79
2023/05/25 10:37:33;;;;;;;12.05;3.15;;;;;;;16.57;97.91;102496.41;4938835;28;20121;-79
2023/05/25 10:40:05;;;;;;;7.15;2.65;;;;;;;16.68;95.65;102488.16;4970006;28;20486;-79
2023/05/25 10:42:30;;;;;;;7.13;2.67;;;;;;;16.75;96.54;102484.91;4968289;28;20026;-80
2023/05/25 10:44:57;;;;;;;10.23;2.95;;;;;;;16.30;98.76;102492.06;4955225;28;20134;-79
2023/05/25 10:47:23;;;;;;;12.45;3.55;;;;;;;16.19;100.00;102492.00;4923061;28;20034;-78
2023/05/25 10:49:54;;;;;;;10.48;3.30;;;;;;;15.99;97.68;102493.53;4926938;28;20047;-78
2023/05/25 10:52:20;;;;;;;13.50;3.58;;;;;;;16.11;98.10;102495.34;4973228;28;20363;-79
2023/05/25 10:54:47;;;;;;;11.70;3.13;;;;;;;16.05;99.88;102492.16;4958630;28;20391;-79
2023/05/25 10:57:21;;;;;;;14.88;3.63;;;;;;;16.33;94.98;102486.28;4927520;28;20031;-79
2023/05/25 10:59:48;;;;;;;12.57;3.00;;;;;;;16.64;95.65;102485.75;4974356;28;20031;-79
2023/05/25 11:02:14;;;;;;;9.52;2.72;;;;;;;16.68;95.47;102499.22;4942161;28;20153;-79
2023/05/25 11:04:40;;;;;;;13.40;3.15;;;;;;;16.71;92.89;102492.59;4939039;29;20114;-79
2023/05/25 11:07:12;;;;;;;9.48;2.60;;;;;;;16.63;97.78;102493.19;4956050;28;20483;-79
2023/05/25 11:09:42;;;;;;;8.98;2.88;;;;;;;16.60;96.79;102496.19;4942835;28;20050;-79
2023/05/25 11:12:17;;;;;;;9.60;2.60;;;;;;;16.56;97.68;102496.53;4949955;28;20496;-79
2023/05/25 11:14:43;;;;;;;10.00;2.72;;;;;;;16.33;95.17;102483.53;4956317;28;20034;-79
2023/05/25 11:17:13;;;;;;;12.73;3.35;;;;;;;16.25;96.62;102502.59;4965618;28;20070;-79